Time;durP1;ratioP1;P1;durP2;ratioP2;P2;SDS_P1;SDS_P2;PMS_P1;PMS_P2;Temp;Humidity;BMP_temperature;BMP_pressure;BME280_temperature;BME280_humidity;BME280_pressure;Samples;Min_cycle;Max_cycle;Signal;HPM_P1;HPM_P2
2021/04/20 00:00:56;;;;;;;;;;;;;;;7.66;71.80;100952.35;1701956;84;20226;-73
2021/04/20 00:03:22;;;;;;;;;;;;;;;7.64;71.94;100944.63;1706715;84;20218;-73
2021/04/20 00:05:48;;;;;;;;;;;;;;;7.62;71.93;100945.05;1706905;84;20754;-73
2021/04/20 00:08:14;;;;;;;;;;;;;;;7.61;72.00;100942.05;1697672;84;20307;-72
2021/04/20 00:10:40;;;;;;;;;;;;;;;7.56;71.66;100940.76;1707366;84;20274;-72
2021/04/20 00:13:06;;;;;;;;;;;;;;;7.50;71.91;100938.60;1698625;84;20597;-72
2021/04/20 00:15:34;;;;;;;;;;;;;;;7.49;72.08;100940.74;1685468;84;20320;-72
2021/04/20 00:18:03;;;;;;;;;;;;;;;7.46;72.08;100933.02;1663088;83;20207;-72
2021/04/20 00:20:29;;;;;;;;;;;;;;;7.43;72.14;100930.02;1698346;84;20338;-72
2021/04/20 00:22:57;;;;;;;;;;;;;;;7.42;72.04;100930.87;1703649;84;20296;-72
2021/04/20 00:25:23;;;;;;;;;;;;;;;7.38;72.17;100929.57;1695127;84;20785;-72
2021/04/20 00:27:49;;;;;;;;;;;;;;;7.35;72.16;100927.84;1703852;84;20305;-72
2021/04/20 00:30:16;;;;;;;;;;;;;;;7.33;72.06;100920.98;1699471;84;20290;-72
2021/04/20 00:32:43;;;;;;;;;;;;;;;7.26;72.06;100926.14;1708551;84;20659;-72
2021/04/20 00:35:10;;;;;;;;;;;;;;;7.23;72.27;100917.14;1683537;84;20265;-72
2021/04/20 00:37:39;;;;;;;;;;;;;;;7.18;72.09;100913.69;1696233;84;20302;-72
2021/04/20 00:40:07;;;;;;;;;;;;;;;7.16;72.29;100914.55;1708174;84;20163;-72
2021/04/20 00:42:48;;;;;;;;;;;;;;;7.13;72.26;100912.82;1708931;83;20287;-72
2021/04/20 00:45:17;;;;;;;;;;;;;;;7.08;72.23;100908.52;1702088;83;20251;-72
2021/04/20 00:47:46;;;;;;;;;;;;;;;7.07;72.52;100906.80;1694003;83;396165;-72
2021/04/20 00:50:13;;;;;;;;;;;;;;;7.05;72.38;100908.08;1713195;83;20164;-72
2021/04/20 00:52:39;;;;;;;;;;;;;;;7.04;72.55;100908.08;1713908;83;20452;-72
2021/04/20 00:55:07;;;;;;;;;;;;;;;7.04;72.49;100906.79;1696616;83;20190;-72
2021/04/20 00:57:33;;;;;;;;;;;;;;;6.94;72.36;100905.47;1668435;85;20260;-72
2021/04/20 01:00:04;;;;;;;;;;;;;;;6.90;72.58;100901.17;1670798;85;20598;-72
2021/04/20 01:02:30;;;;;;;;;;;;;;;6.88;72.51;100899.45;1659359;85;20267;-72
2021/04/20 01:04:56;;;;;;;;;;;;;;;6.87;72.70;100897.73;1661827;85;20261;-72
2021/04/20 01:07:22;;;;;;;;;;;;;;;6.87;72.67;100896.02;1662969;85;20239;-72
2021/04/20 01:09:48;;;;;;;;;;;;;;;6.88;72.86;100902.88;1664282;85;20207;-72
2021/04/20 01:12:17;;;;;;;;;;;;;;;6.89;72.79;100894.74;1713993;83;20255;-72
2021/04/20 01:14:43;;;;;;;;;;;;;;;6.89;72.83;100901.17;1712290;83;20416;-72
2021/04/20 01:17:09;;;;;;;;;;;;;;;6.89;72.86;100893.03;1709836;83;20371;-72
2021/04/20 01:19:41;;;;;;;;;;;;;;;6.89;72.92;100885.31;1691792;83;20660;-72
2021/04/20 01:22:07;;;;;;;;;;;;;;;6.88;72.75;100887.45;1712180;83;20295;-72
2021/04/20 01:24:33;;;;;;;;;;;;;;;6.85;72.87;100884.87;1711942;83;20586;-72
2021/04/20 01:26:59;;;;;;;;;;;;;;;6.85;72.97;100880.16;1703885;83;20286;-72
2021/04/20 01:29:25;;;;;;;;;;;;;;;6.88;73.03;100884.03;1685667;83;20231;-72
2021/04/20 01:31:54;;;;;;;;;;;;;;;6.88;73.04;100879.75;1711979;83;20614;-72
2021/04/20 01:34:20;;;;;;;;;;;;;;;6.87;72.92;100885.74;1712138;83;20287;-72
2021/04/20 01:36:50;;;;;;;;;;;;;;;6.82;72.77;100886.58;1695601;83;20199;-72
2021/04/20 01:39:16;;;;;;;;;;;;;;;6.77;72.94;100886.98;1688153;83;20295;-72
2021/04/20 01:41:42;;;;;;;;;;;;;;;6.71;72.89;100885.28;1710996;83;20306;-72
2021/04/20 01:44:11;;;;;;;;;;;;;;;6.70;73.11;100891.70;1703039;83;20315;-72
2021/04/20 01:46:38;;;;;;;;;;;;;;;6.68;73.20;100892.12;1690818;83;20281;-72
2021/04/20 01:49:04;;;;;;;;;;;;;;;6.68;73.23;100895.55;1700242;83;20291;-72
2021/04/20 01:51:34;;;;;;;;;;;;;;;6.67;73.12;100894.25;1682752;84;20605;-72
2021/04/20 01:54:01;;;;;;;;;;;;;;;6.57;73.09;100897.20;1699259;84;20563;-72
2021/04/20 01:56:29;;;;;;;;;;;;;;;6.51;73.13;100894.18;1699267;84;20303;-72
2021/04/20 01:58:59;;;;;;;;;;;;;;;6.50;73.17;100895.45;1700411;84;20635;-72
2021/04/20 02:01:27;;;;;;;;;;;;;;;6.50;73.21;100892.88;1692961;84;20279;-72
2021/04/20 02:03:53;;;;;;;;;;;;;;;6.43;73.29;100897.13;1701045;84;20290;-72
2021/04/20 02:06:22;;;;;;;;;;;;;;;6.42;73.32;100893.27;1700061;83;20319;-72
2021/04/20 02:08:49;;;;;;;;;;;;;;;6.41;73.46;100889.84;1709214;83;21090;-72
2021/04/20 02:11:18;;;;;;;;;;;;;;;6.41;73.32;100887.70;1708676;83;20298;-72
2021/04/20 02:13:44;;;;;;;;;;;;;;;6.38;73.46;100888.55;1713477;83;20251;-72
2021/04/20 02:16:11;;;;;;;;;;;;;;;6.36;73.33;100886.81;1710497;83;20294;-72
2021/04/20 02:18:39;;;;;;;;;;;;;;;6.30;73.29;100892.34;1707779;83;20290;-72
2021/04/20 02:21:09;;;;;;;;;;;;;;;6.26;73.40;100893.61;1713672;83;20278;-72
2021/04/20 02:23:40;;;;;;;;;;;;;;;6.22;73.37;100890.61;1677873;84;20263;-72
2021/04/20 02:26:08;;;;;;;;;;;;;;;6.20;73.50;100890.61;1691953;83;20173;-72
2021/04/20 02:28:37;;;;;;;;;;;;;;;6.14;73.40;100890.98;1688099;84;20216;-72
2021/04/20 02:31:05;;;;;;;;;;;;;;;6.09;73.48;100889.67;1714238;83;20527;-72
2021/04/20 02:33:32;;;;;;;;;;;;;;;6.09;73.56;100889.67;1682826;83;20275;-72
2021/04/20 02:35:59;;;;;;;;;;;;;;;6.05;73.56;100886.66;1671329;85;20286;-72
2021/04/20 02:38:26;;;;;;;;;;;;;;;6.05;73.61;100887.94;1696028;83;20282;-72
2021/04/20 02:40:59;;;;;;;;;;;;;;;6.05;73.63;100881.94;1694317;83;20161;-72
2021/04/20 02:43:26;;;;;;;;;;;;;;;6.04;73.60;100888.78;1700644;83;20248;-72
2021/04/20 02:45:54;;;;;;;;;;;;;;;6.02;73.51;100886.63;1701374;84;20253;-72
2021/04/20 02:48:21;;;;;;;;;;;;;;;6.01;73.64;100881.06;1677894;84;20189;-72
2021/04/20 02:50:48;;;;;;;;;;;;;;;6.00;73.65;100880.63;1705493;84;20167;-72
2021/04/20 02:53:16;;;;;;;;;;;;;;;6.00;73.63;100883.63;1700176;84;20757;-72
2021/04/20 02:55:42;;;;;;;;;;;;;;;5.97;73.52;100881.47;1706207;84;20251;-73
2021/04/20 02:58:14;;;;;;;;;;;;;;;5.95;73.51;100883.59;1697331;84;20174;-72
2021/04/20 03:00:48;;;;;;;;;;;;;;;5.85;73.46;100892.89;1707918;84;20159;-72
2021/04/20 03:03:16;;;;;;;;;;;;;;;5.84;73.67;100889.89;1695193;83;20615;-72
2021/04/20 03:05:42;;;;;;;;;;;;;;;5.85;73.78;100886.47;1706261;84;20301;-72
2021/04/20 03:08:10;;;;;;;;;;;;;;;5.83;73.73;100880.47;1693259;84;20560;-72
2021/04/20 03:10:38;;;;;;;;;;;;;;;5.80;73.66;100886.00;1690066;84;20627;-72
2021/04/20 03:13:07;;;;;;;;;;;;;;;5.77;73.59;100887.27;1706920;84;20533;-72
2021/04/20 03:15:34;;;;;;;;;;;;;;;5.71;73.68;100877.84;1694004;83;20309;-72
2021/04/20 03:18:01;;;;;;;;;;;;;;;5.68;73.52;100884.23;1694284;84;20306;-72
2021/04/20 03:20:28;;;;;;;;;;;;;;;5.64;73.63;100882.48;1687761;84;20316;-72
2021/04/20 03:22:56;;;;;;;;;;;;;;;5.60;73.70;100876.89;1701058;84;20313;-72
2021/04/20 03:25:27;;;;;;;;;;;;;;;5.57;73.79;100877.72;1706364;84;20505;-72
2021/04/20 03:27:55;;;;;;;;;;;;;;;5.56;73.82;100882.42;1698914;84;20540;-72
2021/04/20 03:30:27;;;;;;;;;;;;;;;5.56;73.89;100878.56;1686953;84;20296;-72
2021/04/20 03:33:13;;;;;;;;;;;;;;;5.52;73.83;100879.81;1706050;84;20290;-72
2021/04/20 03:35:54;;;;;;;;;;;;;;;5.53;73.79;100877.68;1705945;84;20310;-72
2021/04/20 03:38:40;;;;;;;;;;;;;;;5.47;73.64;100876.34;1701526;84;20304;-72
2021/04/20 03:41:24;;;;;;;;;;;;;;;5.46;73.91;100872.06;1692822;84;20490;-72
2021/04/20 03:43:53;;;;;;;;;;;;;;;5.48;73.97;100875.08;1609965;86;20355;-72
2021/04/20 03:46:25;;;;;;;;;;;;;;;5.46;73.88;100868.22;1667378;85;20546;-72
2021/04/20 03:49:00;;;;;;;;;;;;;;;5.45;73.88;100870.34;1678480;85;20282;-72
2021/04/20 03:51:30;;;;;;;;;;;;;;;5.43;73.91;100877.16;1678054;85;20939;-72
2021/04/20 03:54:03;;;;;;;;;;;;;;;5.42;73.92;100878.01;1671370;85;20334;-72
2021/04/20 03:56:28;;;;;;;;;;;;;;;5.41;73.99;100875.87;1651104;85;20470;-72
2021/04/20 03:58:55;;;;;;;;;;;;;;;5.41;73.88;100877.57;1672038;85;20338;-72
2021/04/20 04:01:21;;;;;;;;;;;;;;;5.39;73.87;100874.99;1678453;85;20293;-72
2021/04/20 04:03:49;;;;;;;;;;;;;;;5.38;73.80;100876.26;1672323;85;20214;-72
2021/04/20 04:06:20;;;;;;;;;;;;;;;5.36;73.92;100872.82;1678761;85;20576;-72
2021/04/20 04:08:48;;;;;;;;;;;;;;;5.36;73.91;100876.66;1670926;85;20317;-72
2021/04/20 04:11:15;;;;;;;;;;;;;;;5.37;74.04;100873.26;1650532;87;20295;-72
2021/04/20 04:13:43;;;;;;;;;;;;;;;5.41;74.03;100881.00;1671490;85;20706;-72
2021/04/20 04:16:12;;;;;;;;;;;;;;;5.44;74.21;100882.73;1678658;85;20649;-72
2021/04/20 04:18:42;;;;;;;;;;;;;;;5.44;74.06;100882.73;1678498;84;20314;-72
2021/04/20 04:21:09;;;;;;;;;;;;;;;5.41;73.96;100886.12;1678663;85;20302;-72
2021/04/20 04:23:43;;;;;;;;;;;;;;;5.39;74.15;100886.53;1678236;85;20322;-72
2021/04/20 04:26:12;;;;;;;;;;;;;;;5.42;74.09;100889.13;1680452;84;20322;-72
2021/04/20 04:28:47;;;;;;;;;;;;;;;5.44;74.22;100897.69;1657386;85;20521;-72
2021/04/20 04:31:14;;;;;;;;;;;;;;;5.46;74.18;100903.70;1679707;85;20293;-72
2021/04/20 04:33:44;;;;;;;;;;;;;;;5.50;74.23;100902.02;1650562;85;20379;-72
2021/04/20 04:36:11;;;;;;;;;;;;;;;5.51;74.15;100907.59;1653394;84;328030;-74
2021/04/20 04:38:39;;;;;;;;;;;;;;;5.50;74.15;100899.45;1680806;84;37328;-74
2021/04/20 04:41:05;;;;;;;;;;;;;;;5.52;74.19;100910.59;1683569;84;20585;-74
2021/04/20 04:43:31;;;;;;;;;;;;;;;5.51;74.13;100918.70;1682739;83;20601;-74
2021/04/20 04:46:00;;;;;;;;;;;;;;;5.52;74.28;100919.56;1654647;84;20277;-74
2021/04/20 04:48:26;;;;;;;;;;;;;;;5.53;74.09;100918.30;1700600;83;20644;-74
2021/04/20 04:50:53;;;;;;;;;;;;;;;5.50;74.21;100916.13;1688767;84;20552;-74
2021/04/20 04:53:20;;;;;;;;;;;;;;;5.54;74.26;100916.17;1696567;84;20271;-74
2021/04/20 04:55:47;;;;;;;;;;;;;;;5.58;74.30;100914.07;1696505;83;20296;-74
2021/04/20 04:58:14;;;;;;;;;;;;;;;5.63;74.39;100917.53;1690370;83;20276;-74
2021/04/20 05:00:43;;;;;;;;;;;;;;;5.70;74.50;100911.18;1672842;83;20305;-75
2021/04/20 05:03:09;;;;;;;;;;;;;;;5.78;74.54;100910.36;1687818;83;20582;-74
2021/04/20 05:05:36;;;;;;;;;;;;;;;5.87;74.51;100904.02;1677555;83;20286;-74
2021/04/20 05:08:03;;;;;;;;;;;;;;;6.07;74.78;100905.49;1690238;83;20201;-74
2021/04/20 05:10:29;;;;;;;;;;;;;;;6.26;74.58;100905.16;1696049;83;20669;-74
2021/04/20 05:12:56;;;;;;;;;;;;;;;6.38;74.48;100903.09;1685857;83;20695;-74
2021/04/20 05:15:23;;;;;;;;;;;;;;;6.56;74.57;100901.91;1673648;83;20292;-74
2021/04/20 05:17:50;;;;;;;;;;;;;;;6.76;74.78;100901.55;1691483;83;20523;-74
2021/04/20 05:20:19;;;;;;;;;;;;;;;7.11;74.99;100896.95;1684424;83;20203;-75
2021/04/20 05:22:46;;;;;;;;;;;;;;;7.60;75.00;100898.73;1700247;83;20241;-73
2021/04/20 05:25:14;;;;;;;;;;;;;;;8.09;74.86;100897.84;1695249;83;20528;-72
2021/04/20 05:27:41;;;;;;;;;;;;;;;8.66;75.31;100898.13;1707481;83;20286;-74
2021/04/20 05:30:08;;;;;;;;;;;;;;;9.32;74.91;100903.80;1688499;83;20195;-73
2021/04/20 05:32:40;;;;;;;;;;;;;;;9.77;74.28;100904.32;1700932;83;20471;-74
2021/04/20 05:35:08;;;;;;;;;;;;;;;10.24;74.67;100902.61;1691930;83;20251;-73
2021/04/20 05:37:39;;;;;;;;;;;;;;;10.79;74.64;100906.72;1699500;83;20451;-73
2021/04/20 05:40:08;;;;;;;;;;;;;;;11.37;74.64;100905.92;1694366;83;20546;-73
2021/04/20 05:42:42;;;;;;;;;;;;;;;11.79;74.19;100900.52;1669014;84;20249;-74
2021/04/20 05:45:10;;;;;;;;;;;;;;;12.21;73.99;100901.50;1644234;84;20222;-74
2021/04/20 05:47:42;;;;;;;;;;;;;;;12.58;73.79;100904.67;1660194;84;20457;-74
2021/04/20 05:50:31;;;;;;;;;;;;;;;12.77;73.59;100901.27;1666049;84;20302;-73
2021/04/20 05:52:56;;;;;;;;;;;;;;;13.00;73.64;100902.91;1674710;84;20197;-74
2021/04/20 05:55:23;;;;;;;;;;;;;;;13.27;73.33;100905.83;1700056;83;20246;-73
2021/04/20 05:57:50;;;;;;;;;;;;;;;13.46;73.28;100900.63;1710284;82;20286;-74
2021/04/20 06:00:18;;;;;;;;;;;;;;;13.66;73.08;100897.09;1704966;83;20313;-73
2021/04/20 06:02:46;;;;;;;;;;;;;;;13.82;72.64;100901.47;1677181;83;20287;-78
2021/04/20 06:05:18;;;;;;;;;;;;;;;14.02;72.71;100895.78;1705013;82;20314;-73
2021/04/20 06:07:48;;;;;;;;;;;;;;;14.19;72.25;100892.27;1695593;83;20597;-73
2021/04/20 06:10:15;;;;;;;;;;;;;;;14.35;72.35;100895.31;1715223;82;20170;-74
2021/04/20 06:12:42;;;;;;;;;;;;;;;14.54;72.25;100884.84;1698148;83;20140;-74
2021/04/20 06:15:10;;;;;;;;;;;;;;;14.74;71.99;100890.31;1700358;83;20283;-73
2021/04/20 06:17:38;;;;;;;;;;;;;;;14.82;71.78;100883.58;1700290;83;20251;-73
2021/04/20 06:20:05;;;;;;;;;;;;;;;14.93;71.90;100887.17;1700099;83;20250;-73
2021/04/20 06:22:46;;;;;;;;;;;;;;;15.01;71.61;100890.41;1679027;83;20250;-73
2021/04/20 06:25:15;;;;;;;;;;;;;;;15.20;71.80;100888.47;1700587;83;20275;-74
2021/04/20 06:27:42;;;;;;;;;;;;;;;15.39;71.61;100895.72;1700041;83;20283;-73
2021/04/20 06:30:10;;;;;;;;;;;;;;;15.60;71.63;100889.83;1699678;83;20405;-73
2021/04/20 06:32:37;;;;;;;;;;;;;;;15.73;71.14;100891.59;1709156;82;20299;-73
2021/04/20 06:35:05;;;;;;;;;;;;;;;15.80;71.16;100889.19;1711651;82;20254;-74
2021/04/20 06:37:34;;;;;;;;;;;;;;;15.98;71.11;100888.58;1670714;84;20322;-74
2021/04/20 06:40:01;;;;;;;;;;;;;;;16.03;70.99;100892.33;1698651;83;20393;-74
2021/04/20 06:42:28;;;;;;;;;;;;;;;16.30;71.09;100886.59;1697935;83;20295;-74
2021/04/20 06:45:05;;;;;;;;;;;;;;;16.53;70.89;100890.09;1693587;83;20387;-74
2021/04/20 06:47:40;;;;;;;;;;;;;;;16.71;70.78;100890.33;1692401;83;20272;-74
2021/04/20 06:50:08;;;;;;;;;;;;;;;16.92;70.79;100885.61;1699029;83;20259;-73
2021/04/20 06:52:59;;;;;;;;;;;;;;;17.10;70.61;100889.29;1697516;83;20291;-73
2021/04/20 06:55:35;;;;;;;;;;;;;;;17.19;70.44;100884.53;1637610;86;20675;-74
2021/04/20 06:58:16;;;;;;;;;;;;;;;17.23;70.55;100885.72;1248206;88;5002193;-74
2021/04/20 07:00:48;;;;;;;;;;;;;;;17.38;70.35;100878.13;1593980;87;20283;-74
2021/04/20 07:03:27;;;;;;;;;;;;;;;17.60;70.12;100874.19;1581486;90;20427;-73
2021/04/20 07:06:14;;;;;;;;;;;;;;;17.79;70.26;100871.67;1588195;89;20341;-74
2021/04/20 07:08:43;;;;;;;;;;;;;;;18.09;70.11;100871.69;1622470;86;20395;-74
2021/04/20 07:11:12;;;;;;;;;;;;;;;18.43;70.16;100871.50;1590943;88;20340;-74
2021/04/20 07:13:39;;;;;;;;;;;;;;;18.62;69.93;100868.48;1624825;86;20322;-74
2021/04/20 07:16:20;;;;;;;;;;;;;;;18.75;69.75;100868.75;1620943;86;20310;-73
2021/04/20 07:19:12;;;;;;;;;;;;;;;18.87;69.58;100856.86;1574441;88;20341;-73
2021/04/20 07:21:48;;;;;;;;;;;;;;;19.05;69.63;100856.85;1602650;86;20627;-73
2021/04/20 07:24:19;;;;;;;;;;;;;;;19.32;69.38;100859.05;1615326;88;20325;-73
2021/04/20 07:27:22;;;;;;;;;;;;;;;19.48;69.15;100853.45;1651287;84;20285;-74
2021/04/20 07:30:14;;;;;;;;;;;;;;;19.67;69.15;100859.53;1681686;83;20294;-74
2021/04/20 07:33:01;;;;;;;;;;;;;;;19.88;69.23;100857.57;1664015;83;20605;-74
2021/04/20 07:35:56;;;;;;;;;;;;;;;20.05;68.65;100851.47;1695537;83;20284;-74
2021/04/20 07:38:32;;;;;;;;;;;;;;;20.14;68.67;100850.99;1699472;83;20264;-74
2021/04/20 07:41:10;;;;;;;;;;;;;;;20.31;68.57;100844.37;1698226;83;20277;-74
2021/04/20 07:43:52;;;;;;;;;;;;;;;20.33;68.29;100844.29;1683798;83;20259;-73
2021/04/20 07:46:38;;;;;;;;;;;;;;;20.32;68.17;100847.37;1702815;83;20283;-74
2021/04/20 07:49:16;;;;;;;;;;;;;;;20.38;68.17;100846.23;1707827;82;20267;-73
2021/04/20 07:51:49;;;;;;;;;;;;;;;20.46;67.98;100846.22;1706033;83;20255;-74
2021/04/20 07:54:32;;;;;;;;;;;;;;;20.46;67.83;100848.00;1697559;83;20269;-74
2021/04/20 07:57:16;;;;;;;;;;;;;;;20.41;67.69;100848.23;1697165;82;20271;-74
2021/04/20 07:59:45;;;;;;;;;;;;;;;20.41;67.74;100848.70;1706161;82;20257;-73
2021/04/20 08:02:33;;;;;;;;;;;;;;;20.38;67.65;100849.72;1705681;82;20259;-74
2021/04/20 08:05:12;;;;;;;;;;;;;;;20.36;67.25;100847.60;1701033;83;20187;-74
2021/04/20 08:07:54;;;;;;;;;;;;;;;20.24;67.28;100844.34;1704279;82;20440;-74
2021/04/20 08:10:24;;;;;;;;;;;;;;;20.13;66.95;100838.33;1699209;82;20162;-74
2021/04/20 08:12:59;;;;;;;;;;;;;;;19.97;66.81;100839.20;1707078;82;20279;-76
2021/04/20 08:15:32;;;;;;;;;;;;;;;19.72;67.05;100836.53;1707643;82;20261;-75
2021/04/20 08:18:08;;;;;;;;;;;;;;;19.67;67.48;100834.60;1703471;82;20573;-79
2021/04/20 08:20:36;;;;;;;;;;;;;;;19.69;66.93;100833.22;1690000;82;20283;-73
2021/04/20 08:23:04;;;;;;;;;;;;;;;19.60;66.92;100831.90;1707372;82;20263;-73
2021/04/20 08:25:50;;;;;;;;;;;;;;;19.50;66.73;100831.93;1707580;82;20260;-74
2021/04/20 08:28:43;;;;;;;;;;;;;;;19.47;66.72;100832.93;1707044;82;20303;-74
2021/04/20 08:31:20;;;;;;;;;;;;;;;19.49;66.43;100833.70;1706751;82;20259;-74
2021/04/20 08:33:50;;;;;;;;;;;;;;;19.45;66.67;100832.63;1707297;82;20274;-74
2021/04/20 08:36:32;;;;;;;;;;;;;;;19.30;66.45;100835.53;1707276;82;20275;-74
2021/04/20 08:39:04;;;;;;;;;;;;;;;19.24;66.31;100828.42;1686887;82;20283;-74
2021/04/20 08:41:39;;;;;;;;;;;;;;;19.16;66.13;100826.20;1702155;82;20303;-74
2021/04/20 08:44:18;;;;;;;;;;;;;;;19.30;66.05;100822.88;1711275;82;20312;-74
2021/04/20 08:46:53;;;;;;;;;;;;;;;19.73;65.60;100822.48;1701425;82;20294;-73
2021/04/20 08:49:37;;;;;;;;;;;;;;;20.25;65.04;100823.71;1685394;83;20281;-73
2021/04/20 08:52:09;;;;;;;;;;;;;;;20.69;65.07;100821.80;1656393;85;20284;-74
2021/04/20 08:54:42;;;;;;;;;;;;;;;21.15;65.26;100819.60;1668841;84;20286;-74
2021/04/20 08:57:29;;;;;;;;;;;;;;;21.42;65.34;100815.87;1665509;84;20284;-73
2021/04/20 09:00:16;;;;;;;;;;;;;;;21.64;65.32;100816.78;1666156;84;20301;-74
2021/04/20 09:02:48;;;;;;;;;;;;;;;21.63;65.16;100818.19;1669692;84;20289;-74
2021/04/20 09:05:37;;;;;;;;;;;;;;;21.48;64.87;100812.03;1714298;82;20251;-73
2021/04/20 09:08:09;;;;;;;;;;;;;;;21.32;64.89;100809.44;1714579;82;20261;-73
2021/04/20 09:10:39;;;;;;;;;;;;;;;20.88;64.54;100809.31;1676759;83;20285;-73
2021/04/20 09:13:19;;;;;;;;;;;;;;;20.30;64.43;100807.22;1684031;83;20262;-78
2021/04/20 09:16:04;;;;;;;;;;;;;;;19.81;64.54;100805.86;1657643;85;20187;-78
2021/04/20 09:18:36;;;;;;;;;;;;;;;19.36;63.92;100810.32;1687254;83;20249;-74
2021/04/20 09:21:12;;;;;;;;;;;;;;;18.92;63.59;100805.09;1698468;83;20297;-74
2021/04/20 09:23:56;;;;;;;;;;;;;;;18.66;63.49;100803.25;1656893;83;20579;-73
2021/04/20 09:26:32;;;;;;;;;;;;;;;18.48;63.28;100801.45;1685313;83;20266;-73
2021/04/20 09:29:07;;;;;;;;;;;;;;;18.20;62.87;100800.53;1670962;84;20284;-74
2021/04/20 09:31:36;;;;;;;;;;;;;;;18.03;62.87;100791.29;1716025;82;20472;-74
2021/04/20 09:34:04;;;;;;;;;;;;;;;17.88;62.64;100790.64;1716472;82;20262;-74
2021/04/20 09:36:31;;;;;;;;;;;;;;;17.62;62.46;100795.22;1712624;82;20263;-74
2021/04/20 09:39:00;;;;;;;;;;;;;;;17.36;62.21;100788.45;1687346;83;20276;-73
2021/04/20 09:41:28;;;;;;;;;;;;;;;17.19;61.83;100786.98;1654916;85;20252;-73
2021/04/20 09:44:04;;;;;;;;;;;;;;;17.11;61.75;100789.09;1685172;83;20272;-73
2021/04/20 09:46:40;;;;;;;;;;;;;;;17.08;61.70;100789.21;1652622;85;20284;-73
2021/04/20 09:49:09;;;;;;;;;;;;;;;17.09;61.48;100791.77;1679724;84;20291;-73
2021/04/20 09:51:47;;;;;;;;;;;;;;;17.08;61.28;100789.21;1670250;83;20525;-73
2021/04/20 09:54:31;;;;;;;;;;;;;;;17.10;61.51;100784.31;1705987;83;20163;-74
2021/04/20 09:57:02;;;;;;;;;;;;;;;17.11;61.28;100782.09;1703380;82;20274;-74
2021/04/20 09:59:37;;;;;;;;;;;;;;;17.15;61.19;100787.59;1678879;84;20269;-73
2021/04/20 10:02:15;;;;;;;;;;;;;;;17.17;61.23;100780.52;1702607;82;20269;-73
2021/04/20 10:04:59;;;;;;;;;;;;;;;17.19;60.87;100781.30;1705082;83;20271;-73
2021/04/20 10:07:50;;;;;;;;;;;;;;;17.23;60.96;100775.95;1694907;83;20297;-73
2021/04/20 10:10:39;;;;;;;;;;;;;;;17.26;60.74;100774.52;1707565;83;20297;-73
2021/04/20 10:13:31;;;;;;;;;;;;;;;17.28;60.63;100768.77;1693982;83;20276;-73
2021/04/20 10:16:18;;;;;;;;;;;;;;;17.31;60.60;100769.95;1704517;83;20266;-74
2021/04/20 10:19:16;;;;;;;;;;;;;;;17.29;60.26;100765.25;1706870;82;20258;-74
2021/04/20 10:22:03;;;;;;;;;;;;;;;17.32;60.14;100768.59;1700853;82;20277;-74
2021/04/20 10:24:32;;;;;;;;;;;;;;;17.38;60.24;100759.64;1672653;84;20274;-74
2021/04/20 10:27:11;;;;;;;;;;;;;;;17.46;60.03;100760.17;1683447;84;20258;-74
2021/04/20 10:29:56;;;;;;;;;;;;;;;17.50;59.84;100755.20;1702389;83;20254;-74
2021/04/20 10:32:28;;;;;;;;;;;;;;;17.51;59.83;100756.45;1707101;83;20526;-74
2021/04/20 10:34:55;;;;;;;;;;;;;;;17.49;59.70;100753.05;1694852;83;20278;-74
2021/04/20 10:37:30;;;;;;;;;;;;;;;17.53;59.78;100752.46;1703799;83;20290;-74
2021/04/20 10:39:56;;;;;;;;;;;;;;;17.55;59.78;100748.02;1700721;83;20279;-73
2021/04/20 10:42:30;;;;;;;;;;;;;;;17.60;59.80;100747.36;1703247;83;20250;-73
2021/04/20 10:44:56;;;;;;;;;;;;;;;17.65;59.82;100746.74;1704627;83;20283;-73
2021/04/20 10:47:30;;;;;;;;;;;;;;;17.66;59.65;100744.98;1717697;82;20308;-74
2021/04/20 10:50:00;;;;;;;;;;;;;;;17.64;59.35;100750.24;1695494;82;20262;-73
2021/04/20 10:52:29;;;;;;;;;;;;;;;17.64;59.32;100745.47;1681538;83;20276;-73
2021/04/20 10:55:02;;;;;;;;;;;;;;;17.62;59.44;100742.07;1666704;84;20277;-73
2021/04/20 10:57:29;;;;;;;;;;;;;;;17.64;59.39;100737.63;1668296;84;20666;-74
2021/04/20 10:59:57;;;;;;;;;;;;;;;17.70;59.35;100737.36;1668867;84;20169;-74
2021/04/20 11:02:30;;;;;;;;;;;;;;;17.66;59.02;100733.20;1651126;84;20270;-73
2021/04/20 11:04:56;;;;;;;;;;;;;;;17.66;58.95;100729.28;1671315;84;20163;-73
2021/04/20 11:07:35;;;;;;;;;;;;;;;17.66;58.91;100729.28;1663665;84;20254;-73
2021/04/20 11:10:03;;;;;;;;;;;;;;;17.73;58.92;100725.00;1660867;84;20169;-73
2021/04/20 11:12:29;;;;;;;;;;;;;;;17.78;58.78;100720.88;1673705;84;20251;-74
2021/04/20 11:14:56;;;;;;;;;;;;;;;17.79;58.59;100712.11;1713830;82;20455;-73
2021/04/20 11:17:44;;;;;;;;;;;;;;;17.81;58.65;100710.28;1667124;84;20282;-73
2021/04/20 11:20:37;;;;;;;;;;;;;;;17.82;58.48;100708.91;1698033;83;20263;-73
2021/04/20 11:23:12;;;;;;;;;;;;;;;17.79;58.58;100704.27;1697605;83;20188;-73
2021/04/20 11:25:53;;;;;;;;;;;;;;;17.65;58.36;100706.63;1701600;83;20256;-74
2021/04/20 11:28:34;;;;;;;;;;;;;;;17.52;58.23;100701.94;1701687;83;20208;-74
2021/04/20 11:31:20;;;;;;;;;;;;;;;17.46;58.15;100699.58;1702010;83;20251;-73
2021/04/20 11:33:55;;;;;;;;;;;;;;;17.38;58.30;100694.29;1701884;83;20511;-74
2021/04/20 11:36:23;;;;;;;;;;;;;;;17.34;58.14;100694.87;1699804;83;20355;-74
2021/04/20 11:38:53;;;;;;;;;;;;;;;17.29;57.95;100696.84;1684779;83;20158;-73
2021/04/20 11:41:34;;;;;;;;;;;;;;;17.20;57.94;100698.07;1670731;84;20199;-73
2021/04/20 11:44:03;;;;;;;;;;;;;;;17.16;57.95;100693.88;1671243;83;20253;-73
2021/04/20 11:46:32;;;;;;;;;;;;;;;17.15;58.08;100688.30;1663213;84;20253;-75
2021/04/20 11:49:10;;;;;;;;;;;;;;;17.14;57.97;100687.05;1675517;84;20298;-75
2021/04/20 11:51:39;;;;;;;;;;;;;;;17.12;58.09;100689.73;1681828;83;20194;-75
2021/04/20 11:54:05;;;;;;;;;;;;;;;17.09;57.83;100684.64;1698305;83;20222;-75
2021/04/20 11:56:36;;;;;;;;;;;;;;;17.07;57.82;100680.39;1712490;83;20269;-75
2021/04/20 11:59:03;;;;;;;;;;;;;;;17.11;57.77;100677.58;1692507;83;20552;-75
2021/04/20 12:01:29;;;;;;;;;;;;;;;17.18;57.60;100678.14;1680025;83;20295;-75
2021/04/20 12:03:59;;;;;;;;;;;;;;;17.26;57.54;100676.52;1698292;83;20159;-75
2021/04/20 12:06:27;;;;;;;;;;;;;;;17.34;57.34;100676.58;1679750;84;20187;-75
2021/04/20 12:08:55;;;;;;;;;;;;;;;17.45;57.31;100673.50;1681304;84;20488;-75
2021/04/20 12:11:26;;;;;;;;;;;;;;;17.58;56.83;100671.20;1695194;84;20255;-75
2021/04/20 12:13:52;;;;;;;;;;;;;;;17.64;56.66;100673.09;1703363;83;20247;-77
2021/04/20 12:16:19;;;;;;;;;;;;;;;17.65;56.22;100663.06;1703644;83;20175;-77
2021/04/20 12:18:46;;;;;;;;;;;;;;;17.70;56.31;100662.82;1703164;84;20163;-76
2021/04/20 12:21:24;;;;;;;;;;;;;;;17.78;56.25;100664.64;1701738;83;20250;-76
2021/04/20 12:23:58;;;;;;;;;;;;;;;17.74;55.94;100663.92;1703660;83;20155;-76
2021/04/20 12:26:26;;;;;;;;;;;;;;;17.79;55.98;100662.41;1703711;83;20451;-76
2021/04/20 12:28:56;;;;;;;;;;;;;;;17.81;55.89;100661.42;1702460;84;20250;-76
2021/04/20 12:31:33;;;;;;;;;;;;;;;17.83;55.81;100662.20;1702360;84;20526;-77
2021/04/20 12:34:00;;;;;;;;;;;;;;;17.90;55.84;100658.86;1694317;84;20587;-78
2021/04/20 12:36:32;;;;;;;;;;;;;;;18.01;55.62;100653.98;1683861;84;20274;-78
2021/04/20 12:39:00;;;;;;;;;;;;;;;18.13;55.64;100643.41;1690359;82;20308;-78
2021/04/20 12:41:29;;;;;;;;;;;;;;;18.25;55.70;100645.88;1692171;84;20295;-77
2021/04/20 12:43:57;;;;;;;;;;;;;;;18.35;55.53;100645.84;1703485;83;20187;-77
2021/04/20 12:46:27;;;;;;;;;;;;;;;18.39;55.35;100649.55;1693849;82;20521;-77
2021/04/20 12:48:55;;;;;;;;;;;;;;;18.40;55.24;100648.62;1709187;82;20200;-77
2021/04/20 12:51:23;;;;;;;;;;;;;;;18.47;55.11;100643.48;1705207;82;20266;-77
2021/04/20 12:53:55;;;;;;;;;;;;;;;18.50;55.08;100634.63;1673114;83;20546;-77
2021/04/20 12:56:31;;;;;;;;;;;;;;;18.61;55.20;100630.22;1722521;82;20171;-77
2021/04/20 12:58:58;;;;;;;;;;;;;;;18.73;55.05;100633.52;1697064;82;20270;-77
2021/04/20 13:01:24;;;;;;;;;;;;;;;18.78;54.73;100627.13;1704084;82;20582;-77
2021/04/20 13:03:52;;;;;;;;;;;;;;;18.84;55.04;100622.05;1714204;82;20188;-77